sensor_id;sensor_type;location;lat;lon;timestamp;P1;durP1;ratioP1;P2;durP2;ratioP2
1164;SDS011;571;50.930;6.926;2022-11-20T03:46:28;16.10;;;12.63;;
1164;SDS011;571;50.930;6.926;2022-11-20T03:48:55;17.60;;;13.50;;
1164;SDS011;571;50.930;6.926;2022-11-20T03:51:24;15.40;;;12.30;;
1164;SDS011;571;50.930;6.926;2022-11-20T03:53:53;17.90;;;12.90;;
1164;SDS011;571;50.930;6.926;2022-11-20T03:56:23;14.63;;;11.90;;
1164;SDS011;571;50.930;6.926;2022-11-20T03:58:51;16.60;;;11.93;;
1164;SDS011;571;50.930;6.926;2022-11-20T04:01:18;16.70;;;12.53;;
1164;SDS011;571;50.930;6.926;2022-11-20T04:03:48;15.37;;;12.47;;
1164;SDS011;571;50.930;6.926;2022-11-20T04:06:18;14.70;;;12.53;;
1164;SDS011;571;50.930;6.926;2022-11-20T04:08:47;15.80;;;13.30;;
1164;SDS011;571;50.930;6.926;2022-11-20T04:11:14;13.97;;;12.13;;
1164;SDS011;571;50.930;6.926;2022-11-20T04:13:45;17.00;;;12.57;;
1164;SDS011;571;50.930;6.926;2022-11-20T04:16:13;16.60;;;12.83;;
1164;SDS011;571;50.930;6.926;2022-11-20T04:18:41;16.77;;;14.20;;
1164;SDS011;571;50.930;6.926;2022-11-20T04:21:09;18.80;;;13.47;;
1164;SDS011;571;50.930;6.926;2022-11-20T04:23:37;17.80;;;13.93;;
1164;SDS011;571;50.930;6.926;2022-11-20T04:26:04;18.87;;;14.20;;
1164;SDS011;571;50.930;6.926;2022-11-20T04:28:32;19.90;;;14.87;;
1164;SDS011;571;50.930;6.926;2022-11-20T04:31:03;19.50;;;14.03;;
1164;SDS011;571;50.930;6.926;2022-11-20T04:33:31;20.80;;;15.27;;
1164;SDS011;571;50.930;6.926;2022-11-20T04:36:00;16.97;;;13.43;;
1164;SDS011;571;50.930;6.926;2022-11-20T04:38:33;20.70;;;14.77;;
1164;SDS011;571;50.930;6.926;2022-11-20T04:41:00;18.70;;;14.40;;
1164;SDS011;571;50.930;6.926;2022-11-20T04:43:28;25.50;;;16.83;;
1164;SDS011;571;50.930;6.926;2022-11-20T04:45:56;18.47;;;13.87;;
1164;SDS011;571;50.930;6.926;2022-11-20T04:48:24;21.70;;;15.63;;
1164;SDS011;571;50.930;6.926;2022-11-20T04:50:52;19.03;;;14.33;;
1164;SDS011;571;50.930;6.926;2022-11-20T04:53:19;18.90;;;15.10;;
1164;SDS011;571;50.930;6.926;2022-11-20T04:55:48;22.83;;;14.80;;
1164;SDS011;571;50.930;6.926;2022-11-20T04:58:15;21.50;;;15.83;;
1164;SDS011;571;50.930;6.926;2022-11-20T05:00:42;23.13;;;15.90;;
1164;SDS011;571;50.930;6.926;2022-11-20T05:03:09;23.43;;;16.43;;
1164;SDS011;571;50.930;6.926;2022-11-20T05:05:35;21.50;;;15.23;;
1164;SDS011;571;50.930;6.926;2022-11-20T05:08:02;26.53;;;17.57;;
1164;SDS011;571;50.930;6.926;2022-11-20T05:10:29;19.23;;;13.53;;
1164;SDS011;571;50.930;6.926;2022-11-20T05:12:58;24.37;;;17.00;;
1164;SDS011;571;50.930;6.926;2022-11-20T05:15:24;21.50;;;15.60;;
1164;SDS011;571;50.930;6.926;2022-11-20T05:17:51;20.20;;;15.23;;
1164;SDS011;571;50.930;6.926;2022-11-20T05:20:19;19.50;;;14.90;;
1164;SDS011;571;50.930;6.926;2022-11-20T05:22:46;22.50;;;16.73;;
1164;SDS011;571;50.930;6.926;2022-11-20T05:25:12;21.67;;;15.60;;
1164;SDS011;571;50.930;6.926;2022-11-20T05:27:39;23.13;;;15.37;;
1164;SDS011;571;50.930;6.926;2022-11-20T05:30:08;24.07;;;16.73;;
1164;SDS011;571;50.930;6.926;2022-11-20T05:32:36;20.30;;;14.00;;
1164;SDS011;571;50.930;6.926;2022-11-20T05:35:03;20.73;;;15.20;;
1164;SDS011;571;50.930;6.926;2022-11-20T05:37:30;20.50;;;15.07;;
1164;SDS011;571;50.930;6.926;2022-11-20T05:39:57;18.57;;;15.30;;
1164;SDS011;571;50.930;6.926;2022-11-20T05:42:24;22.37;;;16.07;;
1164;SDS011;571;50.930;6.926;2022-11-20T05:44:57;18.13;;;14.13;;
1164;SDS011;571;50.930;6.926;2022-11-20T05:47:26;22.03;;;15.80;;
1164;SDS011;571;50.930;6.926;2022-11-20T05:49:53;23.87;;;15.27;;
1164;SDS011;571;50.930;6.926;2022-11-20T05:52:19;23.40;;;16.37;;
1164;SDS011;571;50.930;6.926;2022-11-20T05:54:46;22.30;;;15.23;;
1164;SDS011;571;50.930;6.926;2022-11-20T05:57:13;18.87;;;14.73;;
1164;SDS011;571;50.930;6.926;2022-11-20T05:59:40;23.87;;;16.17;;
1164;SDS011;571;50.930;6.926;2022-11-20T06:02:07;18.33;;;14.73;;
1164;SDS011;571;50.930;6.926;2022-11-20T06:04:35;18.60;;;14.70;;
1164;SDS011;571;50.930;6.926;2022-11-20T06:07:02;21.53;;;15.10;;
1164;SDS011;571;50.930;6.926;2022-11-20T06:09:28;22.47;;;16.17;;
1164;SDS011;571;50.930;6.926;2022-11-20T06:11:55;21.20;;;15.67;;
1164;SDS011;571;50.930;6.926;2022-11-20T06:14:22;19.67;;;15.00;;
1164;SDS011;571;50.930;6.926;2022-11-20T06:16:49;22.60;;;16.43;;
1164;SDS011;571;50.930;6.926;2022-11-20T06:19:15;19.33;;;15.17;;
1164;SDS011;571;50.930;6.926;2022-11-20T06:21:44;21.83;;;16.50;;
1164;SDS011;571;50.930;6.926;2022-11-20T06:24:10;24.20;;;17.17;;
1164;SDS011;571;50.930;6.926;2022-11-20T06:26:37;22.53;;;16.83;;
1164;SDS011;571;50.930;6.926;2022-11-20T06:29:04;24.83;;;16.90;;
1164;SDS011;571;50.930;6.926;2022-11-20T06:31:31;25.40;;;16.10;;
1164;SDS011;571;50.930;6.926;2022-11-20T06:34:00;24.43;;;16.13;;
1164;SDS011;571;50.930;6.926;2022-11-20T06:36:26;22.43;;;17.87;;
1164;SDS011;571;50.930;6.926;2022-11-20T06:38:54;23.63;;;17.20;;
1164;SDS011;571;50.930;6.926;2022-11-20T06:41:22;26.77;;;18.10;;
1164;SDS011;571;50.930;6.926;2022-11-20T06:43:48;25.37;;;16.90;;
1164;SDS011;571;50.930;6.926;2022-11-20T06:46:16;20.83;;;16.13;;
1164;SDS011;571;50.930;6.926;2022-11-20T06:48:44;24.50;;;17.13;;
1164;SDS011;571;50.930;6.926;2022-11-20T06:51:11;21.53;;;16.40;;
1164;SDS011;571;50.930;6.926;2022-11-20T06:53:38;25.87;;;17.90;;
1164;SDS011;571;50.930;6.926;2022-11-20T06:56:06;30.97;;;19.63;;
1164;SDS011;571;50.930;6.926;2022-11-20T06:58:34;25.60;;;18.23;;
1164;SDS011;571;50.930;6.926;2022-11-20T07:01:02;22.90;;;16.53;;
1164;SDS011;571;50.930;6.926;2022-11-20T07:03:30;25.30;;;17.10;;
1164;SDS011;571;50.930;6.926;2022-11-20T07:05:57;23.97;;;15.13;;
1164;SDS011;571;50.930;6.926;2022-11-20T07:08:25;20.77;;;16.67;;
1164;SDS011;571;50.930;6.926;2022-11-20T07:10:52;19.57;;;15.13;;
1164;SDS011;571;50.930;6.926;2022-11-20T07:13:25;19.10;;;14.67;;
1164;SDS011;571;50.930;6.926;2022-11-20T07:15:51;24.20;;;16.37;;
1164;SDS011;571;50.930;6.926;2022-11-20T07:18:18;26.43;;;16.47;;
1164;SDS011;571;50.930;6.926;2022-11-20T07:20:45;21.33;;;15.47;;
1164;SDS011;571;50.930;6.926;2022-11-20T07:23:11;20.63;;;15.77;;
1164;SDS011;571;50.930;6.926;2022-11-20T07:25:38;20.47;;;15.50;;
1164;SDS011;571;50.930;6.926;2022-11-20T07:28:05;22.10;;;15.37;;
1164;SDS011;571;50.930;6.926;2022-11-20T07:30:33;21.30;;;15.20;;
1164;SDS011;571;50.930;6.926;2022-11-20T07:33:00;24.37;;;15.43;;
1164;SDS011;571;50.930;6.926;2022-11-20T07:35:27;18.30;;;14.40;;
1164;SDS011;571;50.930;6.926;2022-11-20T07:37:53;19.10;;;14.47;;
1164;SDS011;571;50.930;6.926;2022-11-20T07:40:20;20.37;;;15.10;;
1164;SDS011;571;50.930;6.926;2022-11-20T07:42:47;21.50;;;15.27;;
1164;SDS011;571;50.930;6.926;2022-11-20T07:45:14;14.10;;;12.00;;
1164;SDS011;571;50.930;6.926;2022-11-20T07:47:43;17.03;;;13.00;;
1164;SDS011;571;50.930;6.926;2022-11-20T07:50:09;15.20;;;11.47;;
1164;SDS011;571;50.930;6.926;2022-11-20T07:52:36;17.47;;;12.37;;
1164;SDS011;571;50.930;6.926;2022-11-20T07:55:04;20.87;;;13.60;;
1164;SDS011;571;50.930;6.926;2022-11-20T07:57:31;19.93;;;13.57;;
1164;SDS011;571;50.930;6.926;2022-11-20T07:59:58;19.60;;;14.47;;
1164;SDS011;571;50.930;6.926;2022-11-20T08:02:25;19.27;;;14.00;;
1164;SDS011;571;50.930;6.926;2022-11-20T08:04:53;19.47;;;13.47;;
1164;SDS011;571;50.930;6.926;2022-11-20T08:07:19;19.80;;;16.33;;
1164;SDS011;571;50.930;6.926;2022-11-20T08:09:46;21.70;;;16.57;;
1164;SDS011;571;50.930;6.926;2022-11-20T08:12:16;21.50;;;15.23;;
1164;SDS011;571;50.930;6.926;2022-11-20T08:15:02;20.10;;;15.50;;
1164;SDS011;571;50.930;6.926;2022-11-20T08:17:29;24.87;;;14.57;;
1164;SDS011;571;50.930;6.926;2022-11-20T08:19:58;22.10;;;14.93;;
1164;SDS011;571;50.930;6.926;2022-11-20T08:22:24;23.70;;;15.60;;
1164;SDS011;571;50.930;6.926;2022-11-20T08:24:51;21.83;;;16.13;;
1164;SDS011;571;50.930;6.926;2022-11-20T08:27:18;20.30;;;15.37;;
1164;SDS011;571;50.930;6.926;2022-11-20T08:29:44;17.90;;;14.23;;
1164;SDS011;571;50.930;6.926;2022-11-20T08:32:11;20.10;;;15.30;;
1164;SDS011;571;50.930;6.926;2022-11-20T08:34:38;19.07;;;14.77;;
1164;SDS011;571;50.930;6.926;2022-11-20T08:37:06;24.10;;;16.53;;
1164;SDS011;571;50.930;6.926;2022-11-20T08:39:33;22.80;;;14.87;;
1164;SDS011;571;50.930;6.926;2022-11-20T08:42:00;21.50;;;15.43;;
1164;SDS011;571;50.930;6.926;2022-11-20T08:44:27;22.87;;;16.20;;
1164;SDS011;571;50.930;6.926;2022-11-20T08:46:53;21.30;;;16.20;;
1164;SDS011;571;50.930;6.926;2022-11-20T08:49:20;27.70;;;15.47;;
1164;SDS011;571;50.930;6.926;2022-11-20T08:51:47;26.03;;;17.53;;
1164;SDS011;571;50.930;6.926;2022-11-20T08:54:18;19.67;;;14.80;;
1164;SDS011;571;50.930;6.926;2022-11-20T08:56:46;20.83;;;15.30;;
1164;SDS011;571;50.930;6.926;2022-11-20T08:59:13;23.57;;;16.30;;
1164;SDS011;571;50.930;6.926;2022-11-20T09:01:40;25.57;;;17.00;;
1164;SDS011;571;50.930;6.926;2022-11-20T09:04:07;24.63;;;16.80;;
1164;SDS011;571;50.930;6.926;2022-11-20T09:06:34;19.73;;;16.30;;
1164;SDS011;571;50.930;6.926;2022-11-20T09:09:00;20.37;;;15.63;;
1164;SDS011;571;50.930;6.926;2022-11-20T09:11:28;23.67;;;14.83;;
1164;SDS011;571;50.930;6.926;2022-11-20T09:13:55;21.77;;;14.60;;
1164;SDS011;571;50.930;6.926;2022-11-20T09:16:22;23.40;;;16.47;;
1164;SDS011;571;50.930;6.926;2022-11-20T09:18:49;25.47;;;16.70;;
1164;SDS011;571;50.930;6.926;2022-11-20T09:21:16;21.80;;;14.90;;
1164;SDS011;571;50.930;6.926;2022-11-20T09:23:43;17.83;;;15.13;;
1164;SDS011;571;50.930;6.926;2022-11-20T09:26:11;20.93;;;15.33;;
1164;SDS011;571;50.930;6.926;2022-11-20T09:28:40;21.93;;;15.23;;
1164;SDS011;571;50.930;6.926;2022-11-20T09:31:07;22.63;;;16.40;;
1164;SDS011;571;50.930;6.926;2022-11-20T09:33:35;20.90;;;15.77;;
1164;SDS011;571;50.930;6.926;2022-11-20T09:36:02;25.80;;;16.77;;
1164;SDS011;571;50.930;6.926;2022-11-20T09:38:29;21.40;;;14.57;;
1164;SDS011;571;50.930;6.926;2022-11-20T09:40:57;19.93;;;14.83;;
1164;SDS011;571;50.930;6.926;2022-11-20T09:43:31;22.47;;;15.97;;
1164;SDS011;571;50.930;6.926;2022-11-20T09:46:09;20.90;;;15.87;;
1164;SDS011;571;50.930;6.926;2022-11-20T09:48:43;23.90;;;15.67;;
1164;SDS011;571;50.930;6.926;2022-11-20T09:51:20;19.47;;;16.03;;
1164;SDS011;571;50.930;6.926;2022-11-20T09:53:58;20.83;;;14.23;;
1164;SDS011;571;50.930;6.926;2022-11-20T09:56:33;22.53;;;16.00;;
1164;SDS011;571;50.930;6.926;2022-11-20T09:59:04;22.43;;;15.13;;
1164;SDS011;571;50.930;6.926;2022-11-20T10:01:35;20.33;;;14.20;;
1164;SDS011;571;50.930;6.926;2022-11-20T10:04:06;21.30;;;15.43;;
1164;SDS011;571;50.930;6.926;2022-11-20T10:06:40;24.87;;;16.40;;
1164;SDS011;571;50.930;6.926;2022-11-20T10:09:16;20.67;;;15.00;;
1164;SDS011;571;50.930;6.926;2022-11-20T10:11:48;20.60;;;15.07;;
1164;SDS011;571;50.930;6.926;2022-11-20T10:14:26;21.53;;;14.70;;
1164;SDS011;571;50.930;6.926;2022-11-20T10:17:03;22.87;;;16.43;;
1164;SDS011;571;50.930;6.926;2022-11-20T10:19:46;22.17;;;16.33;;
1164;SDS011;571;50.930;6.926;2022-11-20T10:22:27;21.87;;;17.37;;
1164;SDS011;571;50.930;6.926;2022-11-20T10:25:02;19.73;;;15.30;;
1164;SDS011;571;50.930;6.926;2022-11-20T10:27:53;21.43;;;16.37;;
1164;SDS011;571;50.930;6.926;2022-11-20T10:30:40;25.57;;;16.87;;
1164;SDS011;571;50.930;6.926;2022-11-20T10:33:13;21.23;;;15.10;;
1164;SDS011;571;50.930;6.926;2022-11-20T10:35:43;24.37;;;18.10;;
1164;SDS011;571;50.930;6.926;2022-11-20T10:38:17;23.87;;;17.80;;
1164;SDS011;571;50.930;6.926;2022-11-20T10:40:51;24.23;;;17.70;;
1164;SDS011;571;50.930;6.926;2022-11-20T10:43:40;26.80;;;17.23;;
1164;SDS011;571;50.930;6.926;2022-11-20T10:46:08;23.20;;;16.70;;
1164;SDS011;571;50.930;6.926;2022-11-20T10:48:41;22.93;;;17.17;;
1164;SDS011;571;50.930;6.926;2022-11-20T10:51:15;23.03;;;17.60;;
1164;SDS011;571;50.930;6.926;2022-11-20T10:53:54;23.07;;;16.73;;
1164;SDS011;571;50.930;6.926;2022-11-20T10:56:25;22.10;;;16.37;;
1164;SDS011;571;50.930;6.926;2022-11-20T10:59:02;23.10;;;17.03;;
1164;SDS011;571;50.930;6.926;2022-11-20T11:01:41;24.10;;;18.63;;
1164;SDS011;571;50.930;6.926;2022-11-20T11:04:15;23.87;;;17.30;;
1164;SDS011;571;50.930;6.926;2022-11-20T11:06:52;26.80;;;19.40;;
1164;SDS011;571;50.930;6.926;2022-11-20T11:09:27;22.10;;;16.70;;
1164;SDS011;571;50.930;6.926;2022-11-20T11:11:59;21.43;;;16.47;;
1164;SDS011;571;50.930;6.926;2022-11-20T11:14:26;24.50;;;17.90;;
1164;SDS011;571;50.930;6.926;2022-11-20T11:16:53;22.60;;;17.30;;
1164;SDS011;571;50.930;6.926;2022-11-20T11:19:22;24.80;;;17.63;;
1164;SDS011;571;50.930;6.926;2022-11-20T11:21:50;24.07;;;16.83;;
1164;SDS011;571;50.930;6.926;2022-11-20T11:24:20;24.03;;;16.07;;
1164;SDS011;571;50.930;6.926;2022-11-20T11:26:55;20.80;;;16.40;;
1164;SDS011;571;50.930;6.926;2022-11-20T11:29:23;23.80;;;17.50;;
1164;SDS011;571;50.930;6.926;2022-11-20T11:32:02;23.47;;;15.97;;
1164;SDS011;571;50.930;6.926;2022-11-20T11:34:32;18.70;;;15.60;;
1164;SDS011;571;50.930;6.926;2022-11-20T11:36:59;20.77;;;16.20;;
1164;SDS011;571;50.930;6.926;2022-11-20T11:39:29;23.13;;;17.20;;
1164;SDS011;571;50.930;6.926;2022-11-20T11:41:57;25.87;;;19.40;;
1164;SDS011;571;50.930;6.926;2022-11-20T11:44:27;20.87;;;16.63;;
1164;SDS011;571;50.930;6.926;2022-11-20T11:47:20;20.90;;;17.43;;
1164;SDS011;571;50.930;6.926;2022-11-20T11:50:02;25.97;;;17.60;;
1164;SDS011;571;50.930;6.926;2022-11-20T11:52:41;19.43;;;15.40;;
1164;SDS011;571;50.930;6.926;2022-11-20T11:55:12;19.10;;;14.30;;
1164;SDS011;571;50.930;6.926;2022-11-20T11:57:46;23.50;;;16.23;;
1164;SDS011;571;50.930;6.926;2022-11-20T12:00:18;27.73;;;18.03;;
1164;SDS011;571;50.930;6.926;2022-11-20T12:02:49;21.17;;;15.83;;
1164;SDS011;571;50.930;6.926;2022-11-20T12:05:24;18.60;;;14.87;;
1164;SDS011;571;50.930;6.926;2022-11-20T12:07:55;25.17;;;17.60;;
1164;SDS011;571;50.930;6.926;2022-11-20T12:10:38;28.10;;;18.03;;
1164;SDS011;571;50.930;6.926;2022-11-20T12:13:14;22.20;;;16.60;;
1164;SDS011;571;50.930;6.926;2022-11-20T12:15:47;23.73;;;16.53;;
1164;SDS011;571;50.930;6.926;2022-11-20T12:18:15;22.50;;;15.83;;
1164;SDS011;571;50.930;6.926;2022-11-20T12:20:48;26.20;;;19.17;;
1164;SDS011;571;50.930;6.926;2022-11-20T12:23:23;23.70;;;17.73;;
1164;SDS011;571;50.930;6.926;2022-11-20T12:25:54;22.77;;;15.30;;
1164;SDS011;571;50.930;6.926;2022-11-20T12:28:36;22.17;;;16.23;;
1164;SDS011;571;50.930;6.926;2022-11-20T12:31:14;19.10;;;14.87;;
1164;SDS011;571;50.930;6.926;2022-11-20T12:33:59;21.23;;;15.57;;
1164;SDS011;571;50.930;6.926;2022-11-20T12:36:43;21.03;;;15.10;;
1164;SDS011;571;50.930;6.926;2022-11-20T12:39:27;21.50;;;15.83;;
1164;SDS011;571;50.930;6.926;2022-11-20T12:42:05;20.37;;;14.80;;
1164;SDS011;571;50.930;6.926;2022-11-20T12:45:09;17.20;;;13.63;;
1164;SDS011;571;50.930;6.926;2022-11-20T12:48:00;20.67;;;15.57;;
1164;SDS011;571;50.930;6.926;2022-11-20T12:50:41;21.90;;;16.10;;
1164;SDS011;571;50.930;6.926;2022-11-20T12:53:20;18.60;;;15.57;;
1164;SDS011;571;50.930;6.926;2022-11-20T12:55:54;18.23;;;14.63;;
1164;SDS011;571;50.930;6.926;2022-11-20T12:58:31;19.30;;;14.53;;
1164;SDS011;571;50.930;6.926;2022-11-20T13:01:08;22.63;;;15.43;;
1164;SDS011;571;50.930;6.926;2022-11-20T13:04:06;20.40;;;15.57;;
1164;SDS011;571;50.930;6.926;2022-11-20T13:06:38;21.50;;;15.70;;
1164;SDS011;571;50.930;6.926;2022-11-20T13:09:08;20.37;;;14.80;;
1164;SDS011;571;50.930;6.926;2022-11-20T13:11:37;22.23;;;15.00;;
1164;SDS011;571;50.930;6.926;2022-11-20T13:14:12;24.10;;;14.13;;
1164;SDS011;571;50.930;6.926;2022-11-20T13:16:46;19.90;;;15.27;;
1164;SDS011;571;50.930;6.926;2022-11-20T13:19:18;20.40;;;16.13;;
1164;SDS011;571;50.930;6.926;2022-11-20T13:21:46;20.20;;;15.07;;
1164;SDS011;571;50.930;6.926;2022-11-20T13:24:23;21.40;;;15.77;;
1164;SDS011;571;50.930;6.926;2022-11-20T13:27:05;26.00;;;16.57;;
1164;SDS011;571;50.930;6.926;2022-11-20T13:29:45;23.47;;;16.27;;
1164;SDS011;571;50.930;6.926;2022-11-20T13:32:24;21.00;;;14.17;;
1164;SDS011;571;50.930;6.926;2022-11-20T13:34:51;17.40;;;13.33;;
1164;SDS011;571;50.930;6.926;2022-11-20T13:37:27;21.53;;;16.30;;
1164;SDS011;571;50.930;6.926;2022-11-20T13:40:10;19.30;;;14.70;;
1164;SDS011;571;50.930;6.926;2022-11-20T13:42:54;21.60;;;16.10;;
1164;SDS011;571;50.930;6.926;2022-11-20T13:45:23;18.07;;;14.70;;
1164;SDS011;571;50.930;6.926;2022-11-20T13:47:52;17.43;;;13.83;;
1164;SDS011;571;50.930;6.926;2022-11-20T13:50:19;25.60;;;16.00;;
1164;SDS011;571;50.930;6.926;2022-11-20T13:52:55;20.87;;;15.47;;
1164;SDS011;571;50.930;6.926;2022-11-20T13:55:35;20.37;;;14.20;;
1164;SDS011;571;50.930;6.926;2022-11-20T13:58:15;19.73;;;14.20;;
1164;SDS011;571;50.930;6.926;2022-11-20T14:00:55;19.03;;;14.70;;
1164;SDS011;571;50.930;6.926;2022-11-20T14:03:24;20.70;;;15.20;;
1164;SDS011;571;50.930;6.926;2022-11-20T14:05:55;25.23;;;17.90;;
1164;SDS011;571;50.930;6.926;2022-11-20T14:08:27;24.70;;;17.17;;
1164;SDS011;571;50.930;6.926;2022-11-20T14:11:11;20.27;;;14.90;;
1164;SDS011;571;50.930;6.926;2022-11-20T14:13:50;22.33;;;16.20;;
1164;SDS011;571;50.930;6.926;2022-11-20T14:16:21;23.27;;;16.70;;
1164;SDS011;571;50.930;6.926;2022-11-20T14:18:48;20.97;;;15.07;;
1164;SDS011;571;50.930;6.926;2022-11-20T14:21:21;21.90;;;14.87;;
1164;SDS011;571;50.930;6.926;2022-11-20T14:23:49;21.13;;;16.20;;
1164;SDS011;571;50.930;6.926;2022-11-20T14:26:20;18.30;;;16.33;;
1164;SDS011;571;50.930;6.926;2022-11-20T14:28:47;19.77;;;14.57;;
1164;SDS011;571;50.930;6.926;2022-11-20T14:31:18;24.33;;;16.40;;
1164;SDS011;571;50.930;6.926;2022-11-20T14:33:50;19.27;;;16.13;;
1164;SDS011;571;50.930;6.926;2022-11-20T14:36:18;23.80;;;14.93;;
1164;SDS011;571;50.930;6.926;2022-11-20T14:38:48;24.00;;;16.20;;
1164;SDS011;571;50.930;6.926;2022-11-20T14:41:16;22.40;;;14.77;;
1164;SDS011;571;50.930;6.926;2022-11-20T14:43:49;21.70;;;15.50;;
1164;SDS011;571;50.930;6.926;2022-11-20T14:46:20;18.90;;;15.20;;
1164;SDS011;571;50.930;6.926;2022-11-20T14:48:48;23.23;;;15.77;;
1164;SDS011;571;50.930;6.926;2022-11-20T14:51:23;17.47;;;13.90;;
1164;SDS011;571;50.930;6.926;2022-11-20T14:53:54;23.23;;;16.30;;
1164;SDS011;571;50.930;6.926;2022-11-20T14:56:21;26.90;;;15.87;;
1164;SDS011;571;50.930;6.926;2022-11-20T14:58:56;19.73;;;14.70;;
1164;SDS011;571;50.930;6.926;2022-11-20T15:01:25;19.30;;;14.43;;
1164;SDS011;571;50.930;6.926;2022-11-20T15:03:58;21.70;;;15.63;;
1164;SDS011;571;50.930;6.926;2022-11-20T15:06:26;21.37;;;14.60;;
1164;SDS011;571;50.930;6.926;2022-11-20T15:08:54;18.40;;;13.60;;
1164;SDS011;571;50.930;6.926;2022-11-20T15:11:23;20.03;;;13.97;;
1164;SDS011;571;50.930;6.926;2022-11-20T15:13:55;19.93;;;15.50;;
1164;SDS011;571;50.930;6.926;2022-11-20T15:16:23;20.90;;;15.53;;
1164;SDS011;571;50.930;6.926;2022-11-20T15:18:55;24.47;;;15.07;;
1164;SDS011;571;50.930;6.926;2022-11-20T15:21:22;19.23;;;15.50;;
1164;SDS011;571;50.930;6.926;2022-11-20T15:23:49;24.80;;;15.47;;
1164;SDS011;571;50.930;6.926;2022-11-20T15:26:18;20.97;;;14.80;;
1164;SDS011;571;50.930;6.926;2022-11-20T15:28:49;21.20;;;15.30;;
1164;SDS011;571;50.930;6.926;2022-11-20T15:31:18;21.73;;;15.47;;
1164;SDS011;571;50.930;6.926;2022-11-20T15:33:47;21.60;;;16.90;;
1164;SDS011;571;50.930;6.926;2022-11-20T15:36:14;22.50;;;15.97;;
1164;SDS011;571;50.930;6.926;2022-11-20T15:38:40;20.03;;;16.17;;
1164;SDS011;571;50.930;6.926;2022-11-20T15:41:07;23.37;;;15.60;;
1164;SDS011;571;50.930;6.926;2022-11-20T15:43:35;19.50;;;14.90;;
1164;SDS011;571;50.930;6.926;2022-11-20T15:46:02;19.80;;;14.63;;
1164;SDS011;571;50.930;6.926;2022-11-20T15:48:34;26.20;;;16.53;;
1164;SDS011;571;50.930;6.926;2022-11-20T15:51:06;20.90;;;15.27;;
1164;SDS011;571;50.930;6.926;2022-11-20T15:53:41;19.83;;;14.30;;
1164;SDS011;571;50.930;6.926;2022-11-20T15:56:08;21.07;;;15.20;;
1164;SDS011;571;50.930;6.926;2022-11-20T15:58:39;19.90;;;15.60;;
1164;SDS011;571;50.930;6.926;2022-11-20T16:01:08;17.10;;;12.30;;
1164;SDS011;571;50.930;6.926;2022-11-20T16:03:38;19.60;;;14.00;;
1164;SDS011;571;50.930;6.926;2022-11-20T16:06:05;17.17;;;13.77;;
1164;SDS011;571;50.930;6.926;2022-11-20T16:08:31;19.47;;;14.13;;
1164;SDS011;571;50.930;6.926;2022-11-20T16:10:58;13.60;;;11.73;;
1164;SDS011;571;50.930;6.926;2022-11-20T16:13:25;22.93;;;14.40;;
1164;SDS011;571;50.930;6.926;2022-11-20T16:16:19;20.60;;;14.20;;
1164;SDS011;571;50.930;6.926;2022-11-20T16:18:49;19.10;;;13.47;;
1164;SDS011;571;50.930;6.926;2022-11-20T16:21:16;18.20;;;12.67;;
1164;SDS011;571;50.930;6.926;2022-11-20T16:23:43;18.97;;;14.30;;
1164;SDS011;571;50.930;6.926;2022-11-20T16:26:10;21.23;;;13.17;;
1164;SDS011;571;50.930;6.926;2022-11-20T16:28:37;17.63;;;11.73;;
1164;SDS011;571;50.930;6.926;2022-11-20T16:31:08;14.73;;;11.90;;
1164;SDS011;571;50.930;6.926;2022-11-20T16:33:35;14.80;;;11.90;;
1164;SDS011;571;50.930;6.926;2022-11-20T16:36:07;16.90;;;11.10;;
1164;SDS011;571;50.930;6.926;2022-11-20T16:38:35;12.70;;;9.73;;
1164;SDS011;571;50.930;6.926;2022-11-20T16:41:02;12.10;;;9.30;;
1164;SDS011;571;50.930;6.926;2022-11-20T16:43:29;16.50;;;11.77;;
1164;SDS011;571;50.930;6.926;2022-11-20T16:45:56;11.70;;;9.33;;
1164;SDS011;571;50.930;6.926;2022-11-20T16:48:23;12.27;;;9.60;;
1164;SDS011;571;50.930;6.926;2022-11-20T16:50:50;11.13;;;7.57;;
1164;SDS011;571;50.930;6.926;2022-11-20T16:53:20;7.80;;;7.00;;
1164;SDS011;571;50.930;6.926;2022-11-20T16:55:47;10.03;;;6.03;;
1164;SDS011;571;50.930;6.926;2022-11-20T16:58:14;10.43;;;7.50;;
1164;SDS011;571;50.930;6.926;2022-11-20T17:00:41;7.73;;;5.80;;
1164;SDS011;571;50.930;6.926;2022-11-20T17:03:08;7.30;;;6.00;;
1164;SDS011;571;50.930;6.926;2022-11-20T17:05:36;5.40;;;4.90;;
1164;SDS011;571;50.930;6.926;2022-11-20T17:08:02;5.80;;;4.17;;
1164;SDS011;571;50.930;6.926;2022-11-20T17:10:31;9.83;;;4.40;;
1164;SDS011;571;50.930;6.926;2022-11-20T17:12:58;3.90;;;3.13;;
1164;SDS011;571;50.930;6.926;2022-11-20T17:15:24;5.33;;;4.53;;
1164;SDS011;571;50.930;6.926;2022-11-20T17:17:51;6.60;;;5.47;;
1164;SDS011;571;50.930;6.926;2022-11-20T17:20:18;10.70;;;5.30;;
1164;SDS011;571;50.930;6.926;2022-11-20T17:22:45;8.50;;;5.30;;
1164;SDS011;571;50.930;6.926;2022-11-20T17:25:11;6.47;;;5.23;;
1164;SDS011;571;50.930;6.926;2022-11-20T17:27:39;6.20;;;4.47;;
1164;SDS011;571;50.930;6.926;2022-11-20T17:30:06;6.33;;;5.07;;
1164;SDS011;571;50.930;6.926;2022-11-20T17:32:34;8.70;;;5.70;;
1164;SDS011;571;50.930;6.926;2022-11-20T17:35:00;5.40;;;4.90;;
1164;SDS011;571;50.930;6.926;2022-11-20T17:37:27;4.97;;;4.53;;
1164;SDS011;571;50.930;6.926;2022-11-20T17:39:54;9.67;;;6.20;;
1164;SDS011;571;50.930;6.926;2022-11-20T17:42:21;7.10;;;5.77;;
1164;SDS011;571;50.930;6.926;2022-11-20T17:44:55;8.50;;;5.53;;
1164;SDS011;571;50.930;6.926;2022-11-20T17:47:23;7.90;;;5.77;;
1164;SDS011;571;50.930;6.926;2022-11-20T17:49:50;7.13;;;6.50;;
1164;SDS011;571;50.930;6.926;2022-11-20T17:52:17;6.57;;;5.97;;
1164;SDS011;571;50.930;6.926;2022-11-20T17:54:44;7.37;;;6.63;;
1164;SDS011;571;50.930;6.926;2022-11-20T17:57:11;9.93;;;6.07;;
1164;SDS011;571;50.930;6.926;2022-11-20T17:59:56;10.40;;;6.30;;
1164;SDS011;571;50.930;6.926;2022-11-20T18:02:23;6.90;;;6.07;;
1164;SDS011;571;50.930;6.926;2022-11-20T18:04:52;7.60;;;6.90;;
1164;SDS011;571;50.930;6.926;2022-11-20T18:07:19;9.80;;;7.60;;
1164;SDS011;571;50.930;6.926;2022-11-20T18:09:46;10.30;;;7.10;;
1164;SDS011;571;50.930;6.926;2022-11-20T18:12:13;8.50;;;4.87;;
1164;SDS011;571;50.930;6.926;2022-11-20T18:14:41;5.00;;;4.70;;
1164;SDS011;571;50.930;6.926;2022-11-20T18:17:10;7.67;;;4.90;;
1164;SDS011;571;50.930;6.926;2022-11-20T18:19:40;5.50;;;4.80;;
1164;SDS011;571;50.930;6.926;2022-11-20T18:22:08;8.43;;;5.10;;
1164;SDS011;571;50.930;6.926;2022-11-20T18:24:36;9.17;;;5.63;;
1164;SDS011;571;50.930;6.926;2022-11-20T18:27:04;5.40;;;4.90;;
1164;SDS011;571;50.930;6.926;2022-11-20T18:29:32;5.90;;;4.50;;
1164;SDS011;571;50.930;6.926;2022-11-20T18:31:59;5.77;;;4.60;;
1164;SDS011;571;50.930;6.926;2022-11-20T18:34:27;4.70;;;4.27;;
1164;SDS011;571;50.930;6.926;2022-11-20T18:36:54;4.50;;;3.57;;
1164;SDS011;571;50.930;6.926;2022-11-20T18:39:23;5.10;;;4.60;;
1164;SDS011;571;50.930;6.926;2022-11-20T18:41:50;5.20;;;4.70;;
1164;SDS011;571;50.930;6.926;2022-11-20T18:44:34;4.50;;;4.03;;
1164;SDS011;571;50.930;6.926;2022-11-20T18:47:16;6.80;;;6.30;;
1164;SDS011;571;50.930;6.926;2022-11-20T18:49:46;4.73;;;4.30;;
1164;SDS011;571;50.930;6.926;2022-11-20T18:52:18;5.47;;;4.90;;
1164;SDS011;571;50.930;6.926;2022-11-20T18:54:46;6.63;;;4.70;;
1164;SDS011;571;50.930;6.926;2022-11-20T18:57:14;7.83;;;4.57;;
1164;SDS011;571;50.930;6.926;2022-11-20T18:59:42;6.77;;;4.70;;
1164;SDS011;571;50.930;6.926;2022-11-20T19:02:09;5.87;;;4.80;;
1164;SDS011;571;50.930;6.926;2022-11-20T19:04:37;7.97;;;4.70;;
1164;SDS011;571;50.930;6.926;2022-11-20T19:07:06;5.80;;;5.20;;
1164;SDS011;571;50.930;6.926;2022-11-20T19:09:36;6.67;;;5.37;;